Time;durP1;ratioP1;P1;durP2;ratioP2;P2;SDS_P1;SDS_P2;PMS_P1;PMS_P2;Temp;Humidity;BMP_temperature;BMP_pressure;BME280_temperature;BME280_humidity;BME280_pressure;Samples;Min_cycle;Max_cycle;Signal;HPM_P1;HPM_P2
2021/08/09 00:00:43;;;;;;;7.33;6.73;;;15.40;99.90;;;;;;5052611;28;20167;-67
2021/08/09 00:03:09;;;;;;;7.17;6.53;;;15.30;99.90;;;;;;5051927;28;20558;-67
2021/08/09 00:05:35;;;;;;;7.20;6.70;;;15.30;99.90;;;;;;5068066;28;20174;-67
2021/08/09 00:08:02;;;;;;;6.43;6.03;;;15.20;99.90;;;;;;5072168;28;20210;-68
2021/08/09 00:10:28;;;;;;;6.87;6.37;;;15.10;99.90;;;;;;5070166;28;20177;-67
2021/08/09 00:12:55;;;;;;;7.83;7.07;;;15.00;99.90;;;;;;5071919;28;20205;-68
2021/08/09 00:15:21;;;;;;;7.17;6.63;;;14.90;99.90;;;;;;5055933;28;20515;-67
2021/08/09 00:17:46;;;;;;;7.43;6.83;;;14.80;99.90;;;;;;5052072;28;20182;-68
2021/08/09 00:20:13;;;;;;;9.30;6.70;;;14.70;99.90;;;;;;5065733;28;20177;-68
2021/08/09 00:22:39;;;;;;;7.40;6.87;;;14.60;99.90;;;;;;5067589;28;20286;-68
2021/08/09 00:25:06;;;;;;;7.03;6.53;;;14.60;99.90;;;;;;5058246;28;20203;-68
2021/08/09 00:27:32;;;;;;;7.83;7.17;;;14.50;99.90;;;;;;5052618;28;20182;-68
2021/08/09 00:29:58;;;;;;;6.73;6.27;;;14.50;99.90;;;;;;5070267;28;20178;-66
2021/08/09 00:32:24;;;;;;;6.40;5.90;;;14.50;99.90;;;;;;5070155;28;20197;-68
2021/08/09 00:34:49;;;;;;;6.87;6.27;;;14.40;99.90;;;;;;5052164;28;20178;-68
2021/08/09 00:37:15;;;;;;;7.13;6.43;;;14.40;99.90;;;;;;5051417;28;20174;-68
2021/08/09 00:39:41;;;;;;;6.60;6.13;;;14.40;99.90;;;;;;5052092;28;20666;-67
2021/08/09 00:42:07;;;;;;;10.87;6.67;;;14.20;99.90;;;;;;5051401;28;20217;-67
2021/08/09 00:44:34;;;;;;;8.13;6.47;;;14.20;99.90;;;;;;5067960;28;20182;-67
2021/08/09 00:47:00;;;;;;;7.20;6.70;;;14.20;99.90;;;;;;5071536;28;20178;-67
2021/08/09 00:49:25;;;;;;;7.80;7.10;;;14.00;99.90;;;;;;5056450;28;20179;-67
2021/08/09 00:51:51;;;;;;;6.90;6.40;;;14.10;99.90;;;;;;5054497;28;20178;-67
2021/08/09 00:54:18;;;;;;;8.80;7.27;;;14.00;99.90;;;;;;5069855;28;20202;-67
2021/08/09 00:56:44;;;;;;;7.10;6.60;;;14.00;99.90;;;;;;5069510;28;20166;-67
2021/08/09 00:59:10;;;;;;;7.90;7.30;;;13.90;99.90;;;;;;5051128;28;20300;-67
2021/08/09 01:01:36;;;;;;;7.60;6.90;;;13.90;99.90;;;;;;5049862;28;20686;-67
2021/08/09 01:04:03;;;;;;;7.73;6.97;;;13.80;99.90;;;;;;5074340;28;20325;-67
2021/08/09 01:06:29;;;;;;;7.93;6.77;;;13.80;99.90;;;;;;5075589;28;20170;-67
2021/08/09 01:09:19;;;;;;;7.70;6.93;;;13.70;99.90;;;;;;5056213;28;20192;-67
2021/08/09 01:11:52;;;;;;;9.37;6.73;;;13.70;99.90;;;;;;5055490;28;20201;-67
2021/08/09 01:14:42;;;;;;;7.67;7.07;;;13.70;99.90;;;;;;5074037;28;20212;-67
2021/08/09 01:17:10;;;;;;;8.33;7.73;;;13.70;99.90;;;;;;5073730;28;20183;-66
2021/08/09 01:19:39;;;;;;;8.07;7.40;;;13.60;99.90;;;;;;5075188;28;20173;-67
2021/08/09 01:22:42;;;;;;;8.20;7.50;;;13.60;99.90;;;;;;5062223;28;20198;-67
2021/08/09 01:25:14;;;;;;;7.80;7.30;;;13.60;99.90;;;;;;5054696;28;20198;-68
2021/08/09 01:27:41;;;;;;;7.53;6.93;;;13.60;99.90;;;;;;5071589;28;20228;-66
2021/08/09 01:30:09;;;;;;;7.83;7.13;;;13.50;99.90;;;;;;5074810;28;20231;-67
2021/08/09 01:32:38;;;;;;;6.87;6.27;;;13.50;99.90;;;;;;5059150;28;20195;-68
2021/08/09 01:35:07;;;;;;;7.63;6.77;;;13.50;99.90;;;;;;5055281;28;20163;-67
2021/08/09 01:37:37;;;;;;;7.90;7.10;;;13.50;99.90;;;;;;5067901;28;20171;-67
2021/08/09 01:40:09;;;;;;;7.30;6.90;;;13.50;99.90;;;;;;5074411;28;20173;-67
2021/08/09 01:42:36;;;;;;;8.17;7.47;;;13.50;99.90;;;;;;5059781;28;20195;-66
2021/08/09 01:45:03;;;;;;;8.27;7.47;;;13.60;99.90;;;;;;5053716;28;20182;-67
2021/08/09 01:47:29;;;;;;;7.10;6.60;;;13.60;99.90;;;;;;5067091;28;20573;-67
2021/08/09 01:49:55;;;;;;;7.93;7.30;;;13.70;99.90;;;;;;5071344;28;20170;-67
2021/08/09 01:52:22;;;;;;;11.30;7.07;;;13.80;99.90;;;;;;5053117;28;20222;-67
2021/08/09 01:54:48;;;;;;;8.37;7.67;;;13.80;99.90;;;;;;5054819;28;20163;-65
2021/08/09 01:57:14;;;;;;;7.47;6.87;;;13.90;99.90;;;;;;5056721;28;20182;-68
2021/08/09 01:59:40;;;;;;;7.97;7.30;;;13.90;99.90;;;;;;5068596;28;20547;-67
2021/08/09 02:02:06;;;;;;;8.23;7.47;;;14.00;99.90;;;;;;5074229;28;20186;-66
2021/08/09 02:04:32;;;;;;;8.40;7.60;;;14.00;99.90;;;;;;5060504;28;20260;-67
2021/08/09 02:06:58;;;;;;;8.53;7.70;;;14.10;99.90;;;;;;5063018;28;20186;-66
2021/08/09 02:09:23;;;;;;;11.83;7.13;;;14.20;99.90;;;;;;5066985;28;20228;-67
2021/08/09 02:11:58;;;;;;;8.20;7.40;;;14.20;99.90;;;;;;5054136;28;20171;-67
2021/08/09 02:14:28;;;;;;;7.33;6.83;;;14.20;99.90;;;;;;5059585;28;20232;-70
2021/08/09 02:17:10;;;;;;;8.67;7.63;;;14.20;99.90;;;;;;5075771;28;20697;-69
2021/08/09 02:19:46;;;;;;;7.10;6.60;;;14.30;99.90;;;;;;5071025;28;20423;-72
2021/08/09 02:22:31;;;;;;;7.40;6.80;;;14.30;99.90;;;;;;5056615;28;20248;-71
2021/08/09 02:25:06;;;;;;;7.43;6.73;;;14.40;99.90;;;;;;5054613;28;20208;-70
2021/08/09 02:27:40;;;;;;;7.37;6.87;;;14.40;99.90;;;;;;5057018;28;20166;-68
2021/08/09 02:30:08;;;;;;;8.97;7.30;;;14.30;99.90;;;;;;5074006;28;20174;-71
2021/08/09 02:32:36;;;;;;;7.20;6.60;;;14.40;99.90;;;;;;5072260;28;20186;-70
2021/08/09 02:35:04;;;;;;;9.50;7.20;;;14.40;99.90;;;;;;5056571;28;20203;-72
2021/08/09 02:37:30;;;;;;;8.40;7.20;;;14.30;99.90;;;;;;5056187;28;20178;-72
2021/08/09 02:39:58;;;;;;;7.70;7.00;;;14.30;99.90;;;;;;5075353;28;20234;-70
2021/08/09 02:42:24;;;;;;;7.60;7.00;;;14.20;99.90;;;;;;5076485;28;20251;-72
2021/08/09 02:44:50;;;;;;;7.07;6.53;;;14.20;99.90;;;;;;5057501;28;20262;-72
2021/08/09 02:47:17;;;;;;;8.27;7.47;;;14.10;99.90;;;;;;5056544;28;20196;-73
2021/08/09 02:49:49;;;;;;;7.40;6.70;;;14.10;99.90;;;;;;5074111;28;20205;-71
2021/08/09 02:52:17;;;;;;;7.70;7.30;;;14.00;99.90;;;;;;5063190;28;20207;-73
2021/08/09 02:54:48;;;;;;;7.70;7.00;;;14.00;99.90;;;;;;5056976;28;20259;-68
2021/08/09 02:57:18;;;;;;;8.27;7.37;;;14.00;99.90;;;;;;5068156;28;20274;-72
2021/08/09 02:59:44;;;;;;;10.10;7.00;;;14.00;99.90;;;;;;5076449;28;20174;-72
2021/08/09 03:02:11;;;;;;;7.50;6.90;;;14.10;99.90;;;;;;5057649;28;20195;-71
2021/08/09 03:04:40;;;;;;;7.67;6.97;;;14.00;99.90;;;;;;5055811;28;20611;-72
2021/08/09 03:07:08;;;;;;;7.87;7.10;;;14.00;99.90;;;;;;5074906;28;20927;-73
2021/08/09 03:09:35;;;;;;;8.93;7.20;;;14.00;99.90;;;;;;5073772;28;20598;-70
2021/08/09 03:12:01;;;;;;;7.40;6.63;;;14.00;99.90;;;;;;5053618;28;20202;-69
2021/08/09 03:14:30;;;;;;;7.50;6.77;;;14.10;99.90;;;;;;5053382;28;20203;-70
2021/08/09 03:16:59;;;;;;;7.47;6.90;;;14.20;99.90;;;;;;5056844;28;20274;-69
2021/08/09 03:19:25;;;;;;;7.47;6.73;;;14.10;99.90;;;;;;5058720;28;20190;-70
2021/08/09 03:21:57;;;;;;;6.90;6.40;;;14.10;99.90;;;;;;5055140;28;20179;-70
2021/08/09 03:24:24;;;;;;;7.57;6.83;;;14.20;99.90;;;;;;5059782;28;20185;-71
2021/08/09 03:26:50;;;;;;;8.20;6.73;;;14.20;99.90;;;;;;5073954;28;20202;-70
2021/08/09 03:29:16;;;;;;;8.10;7.40;;;14.20;99.90;;;;;;5070773;28;20183;-70
2021/08/09 03:31:42;;;;;;;8.40;7.63;;;14.20;99.90;;;;;;5055117;28;20178;-70
2021/08/09 03:34:08;;;;;;;8.00;7.00;;;14.20;99.90;;;;;;5054308;28;20284;-69
2021/08/09 03:36:34;;;;;;;7.40;6.70;;;14.10;99.90;;;;;;5053416;28;20182;-70
2021/08/09 03:39:00;;;;;;;7.40;6.70;;;14.10;99.90;;;;;;5053602;28;20184;-71
2021/08/09 03:41:26;;;;;;;7.47;6.77;;;14.10;99.90;;;;;;5052187;28;20635;-71
2021/08/09 03:43:52;;;;;;;7.47;6.90;;;14.20;99.90;;;;;;5068808;28;20560;-69
2021/08/09 03:46:17;;;;;;;7.53;6.97;;;14.30;99.90;;;;;;5073338;28;20185;-68
2021/08/09 03:48:43;;;;;;;7.80;7.20;;;14.20;99.90;;;;;;5070715;28;20178;-68
2021/08/09 03:51:09;;;;;;;7.80;7.10;;;14.20;99.90;;;;;;5057471;28;20633;-73
2021/08/09 03:53:34;;;;;;;9.17;6.70;;;14.20;99.90;;;;;;5109663;22;20226;-68
2021/08/09 03:56:00;;;;;;;7.57;6.80;;;14.30;99.90;;;;;;5072571;28;20167;-66
2021/08/09 03:58:26;;;;;;;7.67;6.97;;;14.30;99.90;;;;;;5072306;28;20235;-66
2021/08/09 04:00:51;;;;;;;7.60;6.80;;;14.30;99.90;;;;;;5072036;28;20675;-68
2021/08/09 04:03:17;;;;;;;7.70;6.60;;;14.30;99.90;;;;;;5071639;28;20272;-67
2021/08/09 04:05:42;;;;;;;7.27;6.77;;;14.30;99.90;;;;;;5072241;28;20677;-67
2021/08/09 04:08:09;;;;;;;7.37;6.67;;;14.40;99.90;;;;;;5071837;28;20268;-66
2021/08/09 04:10:34;;;;;;;7.57;7.03;;;14.40;99.90;;;;;;5071535;28;20178;-66
2021/08/09 04:13:00;;;;;;;8.03;7.33;;;14.50;99.90;;;;;;5071720;28;20327;-67
2021/08/09 04:15:25;;;;;;;7.77;7.03;;;14.50;99.90;;;;;;5071834;28;20166;-68
2021/08/09 04:17:51;;;;;;;9.10;7.60;;;14.50;99.90;;;;;;5071865;28;20662;-67
2021/08/09 04:20:16;;;;;;;8.07;7.47;;;14.50;99.90;;;;;;5071587;28;20198;-66
2021/08/09 04:22:42;;;;;;;9.87;7.80;;;14.50;99.90;;;;;;5071329;28;20209;-68
2021/08/09 04:25:09;;;;;;;14.00;7.07;;;14.50;99.90;;;;;;5071729;28;20227;-67
2021/08/09 04:27:34;;;;;;;6.83;6.30;;;14.60;99.90;;;;;;5070368;28;20269;-66
2021/08/09 04:30:00;;;;;;;7.27;6.50;;;14.50;99.90;;;;;;5071918;28;20249;-67
2021/08/09 04:32:25;;;;;;;6.77;6.27;;;14.60;99.90;;;;;;5071333;28;20744;-67
2021/08/09 04:34:51;;;;;;;7.10;6.60;;;14.60;99.90;;;;;;5070595;28;20170;-67
2021/08/09 04:37:19;;;;;;;7.40;6.57;;;14.60;99.90;;;;;;5070804;28;20193;-67
2021/08/09 04:39:45;;;;;;;6.97;6.40;;;14.60;99.90;;;;;;5071307;28;20297;-68
2021/08/09 04:42:11;;;;;;;7.80;7.03;;;14.60;99.90;;;;;;5071561;28;20174;-67
2021/08/09 04:44:36;;;;;;;7.03;6.53;;;14.70;99.90;;;;;;5071172;28;20544;-68
2021/08/09 04:47:02;;;;;;;7.10;6.60;;;14.70;99.90;;;;;;5071956;28;20167;-68
2021/08/09 04:49:28;;;;;;;7.20;6.60;;;14.70;99.90;;;;;;5070787;28;20190;-68
2021/08/09 04:51:54;;;;;;;7.37;6.87;;;14.70;99.90;;;;;;5071316;28;20257;-65
2021/08/09 04:54:19;;;;;;;8.50;6.93;;;14.70;99.90;;;;;;5071103;28;20202;-66
2021/08/09 04:56:45;;;;;;;7.73;7.03;;;14.80;99.90;;;;;;5071277;28;20189;-67
2021/08/09 04:59:11;;;;;;;10.60;7.50;;;14.70;99.90;;;;;;5071229;28;20162;-66
2021/08/09 05:01:36;;;;;;;7.70;7.00;;;14.80;99.90;;;;;;5071097;28;20170;-67
2021/08/09 05:04:03;;;;;;;7.43;6.90;;;14.80;99.90;;;;;;5071568;28;20247;-67
2021/08/09 05:06:31;;;;;;;7.87;7.20;;;14.80;99.90;;;;;;5071540;28;20514;-68
2021/08/09 05:08:57;;;;;;;7.23;6.67;;;14.80;99.90;;;;;;5051399;28;20202;-67
2021/08/09 05:11:23;;;;;;;7.03;6.43;;;14.80;99.90;;;;;;5060920;28;20178;-66
2021/08/09 05:13:48;;;;;;;7.13;6.67;;;14.70;99.90;;;;;;5071234;28;20228;-66
2021/08/09 05:16:14;;;;;;;7.53;6.67;;;14.70;99.90;;;;;;5070903;28;20260;-67
2021/08/09 05:18:40;;;;;;;7.47;6.97;;;14.80;99.90;;;;;;5071531;28;20181;-67
2021/08/09 05:21:05;;;;;;;7.87;6.57;;;14.80;99.90;;;;;;5070678;28;20174;-66
2021/08/09 05:23:31;;;;;;;6.90;6.50;;;14.90;99.90;;;;;;5071300;28;20190;-67
2021/08/09 05:25:56;;;;;;;7.03;6.53;;;14.90;99.90;;;;;;5070897;28;20237;-67
2021/08/09 05:28:22;;;;;;;6.93;6.33;;;14.90;99.90;;;;;;5071136;28;20227;-68
2021/08/09 05:30:48;;;;;;;7.53;7.00;;;14.90;99.90;;;;;;5070686;28;20182;-67
2021/08/09 05:33:14;;;;;;;7.37;6.67;;;15.00;99.90;;;;;;5070860;28;20570;-68
2021/08/09 05:35:40;;;;;;;7.20;6.80;;;15.00;99.90;;;;;;5070748;28;20228;-67
2021/08/09 05:38:08;;;;;;;7.53;6.93;;;15.00;99.90;;;;;;5071115;28;20184;-68
2021/08/09 05:40:36;;;;;;;13.17;6.50;;;15.10;99.90;;;;;;5070612;28;20263;-68
2021/08/09 05:43:01;;;;;;;7.53;6.50;;;15.10;99.90;;;;;;5070938;28;20198;-67
2021/08/09 05:45:27;;;;;;;6.43;5.93;;;15.20;99.90;;;;;;5070745;28;20170;-66
2021/08/09 05:47:52;;;;;;;7.60;6.43;;;15.20;99.90;;;;;;5070892;28;20558;-68
2021/08/09 05:50:18;;;;;;;7.50;6.90;;;15.30;99.90;;;;;;5073838;28;20309;-67
2021/08/09 05:52:44;;;;;;;6.67;6.27;;;15.30;99.90;;;;;;5074089;28;20639;-67
2021/08/09 05:55:09;;;;;;;7.60;6.90;;;15.30;99.90;;;;;;5074658;28;20171;-66
2021/08/09 05:57:35;;;;;;;6.60;6.10;;;15.30;99.90;;;;;;5074213;28;20174;-67
2021/08/09 06:00:01;;;;;;;6.90;6.33;;;15.30;99.90;;;;;;5074376;28;20224;-68
2021/08/09 06:02:26;;;;;;;6.30;5.90;;;15.40;99.90;;;;;;5074191;28;20662;-67
2021/08/09 06:04:52;;;;;;;6.27;5.87;;;15.40;99.90;;;;;;5074549;28;20174;-68
2021/08/09 06:07:18;;;;;;;6.53;6.03;;;15.50;99.90;;;;;;5073896;28;20186;-65
2021/08/09 06:09:44;;;;;;;6.73;6.23;;;15.50;99.90;;;;;;5074071;28;20216;-67
2021/08/09 06:12:11;;;;;;;6.47;5.97;;;15.60;99.90;;;;;;5073854;28;20619;-66
2021/08/09 06:14:37;;;;;;;6.60;6.10;;;15.60;99.90;;;;;;5074379;28;20216;-68
2021/08/09 06:17:04;;;;;;;6.30;5.83;;;15.70;99.90;;;;;;5073948;28;20253;-68
2021/08/09 06:19:29;;;;;;;6.73;6.00;;;15.80;99.90;;;;;;5073996;28;20174;-68
2021/08/09 06:21:55;;;;;;;7.33;6.73;;;15.80;99.90;;;;;;5073665;28;20170;-67
2021/08/09 06:24:22;;;;;;;6.73;6.03;;;16.00;99.90;;;;;;5074025;28;20591;-68
2021/08/09 06:26:48;;;;;;;6.23;5.83;;;16.20;99.90;;;;;;5072065;28;20221;-68
2021/08/09 06:29:14;;;;;;;6.77;6.20;;;16.30;99.90;;;;;;5073458;28;20229;-64
2021/08/09 06:31:40;;;;;;;6.10;5.60;;;16.40;99.90;;;;;;5073932;28;20659;-68
2021/08/09 06:34:06;;;;;;;6.77;6.33;;;16.50;99.90;;;;;;5073398;28;20221;-67
2021/08/09 06:36:32;;;;;;;8.93;6.07;;;16.60;99.90;;;;;;5073883;28;20508;-67
2021/08/09 06:38:57;;;;;;;6.50;6.00;;;16.60;99.90;;;;;;5073692;28;20185;-66
2021/08/09 06:41:31;;;;;;;6.30;5.90;;;16.70;99.90;;;;;;5073129;28;20647;-67
2021/08/09 06:43:56;;;;;;;7.07;5.63;;;16.70;99.90;;;;;;5073677;28;20767;-67
2021/08/09 06:46:22;;;;;;;6.33;5.93;;;16.80;99.90;;;;;;5073313;28;20182;-67
2021/08/09 06:48:47;;;;;;;6.73;6.13;;;16.90;99.90;;;;;;5073802;28;20174;-67
2021/08/09 06:51:13;;;;;;;5.60;5.30;;;17.00;99.90;;;;;;5072665;28;20224;-67
2021/08/09 06:53:39;;;;;;;6.20;5.80;;;17.20;99.90;;;;;;5073252;28;20210;-67
2021/08/09 06:56:04;;;;;;;6.17;5.77;;;17.40;99.90;;;;;;5073126;28;20313;-68
2021/08/09 06:58:30;;;;;;;5.63;5.33;;;17.50;99.90;;;;;;5073554;28;20257;-68
2021/08/09 07:00:55;;;;;;;6.23;5.83;;;17.60;99.90;;;;;;5072268;28;20177;-68
2021/08/09 07:03:21;;;;;;;6.27;5.77;;;17.70;99.90;;;;;;5072804;28;20206;-67
2021/08/09 07:05:47;;;;;;;6.70;6.20;;;17.90;99.90;;;;;;5073205;28;20261;-67
2021/08/09 07:08:13;;;;;;;6.90;5.53;;;18.00;99.90;;;;;;5073168;28;20270;-68
2021/08/09 07:10:41;;;;;;;5.43;5.13;;;18.20;99.90;;;;;;5072334;28;20218;-68
2021/08/09 07:13:07;;;;;;;5.60;5.30;;;18.40;99.90;;;;;;5071683;28;20197;-67
2021/08/09 07:15:32;;;;;;;6.70;5.83;;;18.80;99.90;;;;;;5072706;28;20232;-66
2021/08/09 07:17:58;;;;;;;5.87;5.37;;;19.30;99.90;;;;;;5072940;28;20636;-67
2021/08/09 07:20:24;;;;;;;6.07;5.57;;;19.80;99.90;;;;;;5072172;28;20266;-66
2021/08/09 07:22:49;;;;;;;5.33;4.93;;;20.20;99.90;;;;;;5072830;28;20763;-68
2021/08/09 07:25:16;;;;;;;5.63;5.33;;;20.50;99.90;;;;;;5072410;28;20192;-68
2021/08/09 07:27:42;;;;;;;5.53;5.13;;;20.80;99.90;;;;;;5072874;28;20435;-68
2021/08/09 07:30:10;;;;;;;5.50;5.10;;;21.10;99.90;;;;;;5072368;28;20162;-65
2021/08/09 07:32:37;;;;;;;4.83;4.50;;;21.60;99.90;;;;;;5072059;28;20210;-68
2021/08/09 07:35:04;;;;;;;4.43;4.23;;;21.90;99.90;;;;;;5072081;28;20226;-67
2021/08/09 07:37:29;;;;;;;5.35;4.85;;;22.30;99.90;;;;;;5071658;28;20189;-67
2021/08/09 07:39:55;;;;;;;4.78;4.47;;;22.60;99.90;;;;;;5071816;28;20178;-68
2021/08/09 07:42:20;;;;;;;4.50;4.20;;;22.80;99.90;;;;;;5072260;28;20192;-68
2021/08/09 07:44:46;;;;;;;5.33;5.00;;;23.00;99.90;;;;;;5072128;28;20178;-68
2021/08/09 07:47:12;;;;;;;4.18;3.88;;;23.10;99.90;;;;;;5072145;28;20232;-68
2021/08/09 07:49:37;;;;;;;4.35;4.05;;;23.20;99.90;;;;;;5071678;28;20182;-68
2021/08/09 07:52:03;;;;;;;4.68;4.28;;;23.40;99.90;;;;;;5072176;28;20201;-67
2021/08/09 07:54:29;;;;;;;4.63;4.32;;;23.30;99.90;;;;;;5071811;28;20205;-68
2021/08/09 07:57:00;;;;;;;5.28;4.88;;;23.00;99.90;;;;;;5072248;28;20178;-68
2021/08/09 07:59:26;;;;;;;4.88;4.57;;;22.80;99.90;;;;;;5071498;28;20572;-67
2021/08/09 08:01:52;;;;;;;4.90;4.60;;;22.60;99.90;;;;;;5072074;28;20158;-68
2021/08/09 08:04:18;;;;;;;4.75;4.28;;;22.80;99.90;;;;;;5070616;28;20200;-68
2021/08/09 08:06:43;;;;;;;4.53;4.25;;;23.10;99.90;;;;;;5072035;28;20169;-67
2021/08/09 08:09:10;;;;;;;4.65;4.35;;;23.60;99.90;;;;;;5071655;28;20174;-67
2021/08/09 08:11:36;;;;;;;4.65;4.22;;;24.00;99.90;;;;;;5071468;28;20784;-67
2021/08/09 08:14:02;;;;;;;5.00;4.57;;;24.40;99.90;;;;;;5071331;28;20218;-67
2021/08/09 08:16:27;;;;;;;5.65;4.15;;;24.50;99.90;;;;;;5072076;28;20178;-67
2021/08/09 08:18:53;;;;;;;4.28;4.07;;;24.60;99.90;;;;;;5078006;28;20792;-68
2021/08/09 08:21:19;;;;;;;4.22;4.00;;;24.90;99.90;;;;;;5071119;28;20181;-68
2021/08/09 08:23:44;;;;;;;4.88;4.57;;;24.90;99.90;;;;;;5071377;28;20683;-68
2021/08/09 08:26:10;;;;;;;4.60;4.30;;;25.00;99.90;;;;;;5071406;28;20192;-67
2021/08/09 08:28:36;;;;;;;5.88;5.38;;;24.90;99.90;;;;;;5071696;28;20643;-68
2021/08/09 08:31:03;;;;;;;6.18;4.15;;;24.80;99.90;;;;;;5071145;28;20174;-64
2021/08/09 08:33:29;;;;;;;4.80;4.45;;;25.00;99.90;;;;;;5070975;28;20212;-67
2021/08/09 08:35:54;;;;;;;4.78;4.38;;;25.20;99.90;;;;;;5071689;28;20220;-67
2021/08/09 08:38:20;;;;;;;6.40;5.90;;;25.10;99.90;;;;;;5071122;28;20647;-66
2021/08/09 08:40:48;;;;;;;5.05;4.65;;;24.90;99.90;;;;;;5071503;28;20584;-68
2021/08/09 08:43:26;;;;;;;4.55;4.18;;;24.80;99.90;;;;;;5071464;28;20690;-67
2021/08/09 08:46:05;;;;;;;5.32;5.13;;;24.80;99.90;;;;;;5071414;28;20178;-68
2021/08/09 08:48:32;;;;;;;4.70;4.40;;;24.90;99.90;;;;;;5071523;28;20209;-67
2021/08/09 08:51:00;;;;;;;5.20;4.85;;;25.10;99.90;;;;;;5070823;28;20178;-68
2021/08/09 08:53:31;;;;;;;4.55;4.35;;;25.00;99.90;;;;;;5071175;28;20739;-68
2021/08/09 08:55:57;;;;;;;4.57;4.20;;;24.90;99.90;;;;;;5070979;28;20175;-68
2021/08/09 08:58:23;;;;;;;4.72;4.35;;;24.80;99.90;;;;;;5071427;28;20228;-69
2021/08/09 09:00:49;;;;;;;4.35;3.97;;;24.60;99.90;;;;;;5070834;28;20173;-69
2021/08/09 09:03:21;;;;;;;5.50;4.47;;;24.50;99.90;;;;;;5071067;28;20182;-68
2021/08/09 09:06:08;;;;;;;5.10;4.60;;;24.60;99.90;;;;;;5070934;28;20185;-68
2021/08/09 09:08:45;;;;;;;4.47;4.18;;;25.20;99.90;;;;;;5068319;28;20549;-69
2021/08/09 09:11:13;;;;;;;4.15;3.85;;;25.90;99.90;;;;;;5070506;28;20177;-67
2021/08/09 09:13:57;;;;;;;4.20;3.90;;;26.70;99.90;;;;;;5071011;28;20209;-67
2021/08/09 09:16:23;;;;;;;4.30;4.10;;;27.30;99.90;;;;;;5070837;28;20709;-68
2021/08/09 09:18:55;;;;;;;4.95;4.55;;;27.30;99.90;;;;;;5071347;28;20261;-68
2021/08/09 09:21:31;;;;;;;4.78;4.53;;;27.50;99.90;;;;;;5070456;28;20189;-69
2021/08/09 09:24:15;;;;;;;4.07;3.83;;;27.60;99.90;;;;;;5072377;28;20194;-70
2021/08/09 09:26:44;;;;;;;4.40;4.10;;;27.10;99.90;;;;;;5075135;28;20259;-69
2021/08/09 09:29:10;;;;;;;4.85;4.50;;;26.40;99.90;;;;;;5075000;28;20170;-67
2021/08/09 09:31:37;;;;;;;4.20;3.80;;;25.90;99.90;;;;;;5074305;28;20545;-68
2021/08/09 09:34:16;;;;;;;5.20;4.80;;;25.40;99.90;;;;;;5074775;28;20210;-69
2021/08/09 09:36:54;;;;;;;4.72;4.43;;;24.90;99.90;;;;;;5055096;28;20178;-68
2021/08/09 09:39:26;;;;;;;4.35;4.00;;;24.40;99.90;;;;;;5055383;28;20170;-68
2021/08/09 09:41:52;;;;;;;4.88;4.47;;;24.10;99.90;;;;;;5074818;28;20194;-67
2021/08/09 09:44:29;;;;;;;4.43;4.13;;;24.10;99.90;;;;;;5074434;28;20194;-67
2021/08/09 09:47:21;;;;;;;4.43;4.13;;;24.10;99.90;;;;;;5054798;28;20185;-67
2021/08/09 09:49:52;;;;;;;4.57;4.20;;;24.10;99.90;;;;;;5057434;28;20591;-66
2021/08/09 09:52:44;;;;;;;4.50;4.20;;;24.00;99.90;;;;;;5074445;28;20198;-69
2021/08/09 09:55:12;;;;;;;4.15;3.95;;;24.00;99.90;;;;;;5045666;22;20219;-67
2021/08/09 09:57:39;;;;;;;4.40;4.03;;;23.90;99.90;;;;;;5034549;28;20164;-68
2021/08/09 10:00:13;;;;;;;4.40;4.10;;;23.90;99.90;;;;;;5033996;28;20210;-67
2021/08/09 10:02:46;;;;;;;5.45;4.95;;;23.80;99.90;;;;;;5034299;28;20187;-67
2021/08/09 10:05:13;;;;;;;4.28;3.95;;;24.20;99.90;;;;;;5034233;28;20215;-68
2021/08/09 10:07:40;;;;;;;4.57;4.20;;;24.90;99.90;;;;;;5034296;28;20214;-68
2021/08/09 10:10:08;;;;;;;4.40;4.20;;;25.20;99.90;;;;;;5034067;28;20524;-68
2021/08/09 10:12:36;;;;;;;4.40;4.10;;;25.30;99.90;;;;;;5034268;28;20172;-67
2021/08/09 10:15:03;;;;;;;4.35;4.15;;;25.40;99.90;;;;;;5034334;28;20215;-68
2021/08/09 10:17:30;;;;;;;5.07;4.70;;;25.30;99.90;;;;;;5033691;28;20181;-67
2021/08/09 10:20:01;;;;;;;3.90;3.70;;;25.00;99.90;;;;;;5034389;28;20702;-67
2021/08/09 10:22:27;;;;;;;4.50;4.10;;;24.90;99.90;;;;;;5033815;28;20183;-67
2021/08/09 10:24:56;;;;;;;4.38;4.07;;;24.70;99.90;;;;;;5034119;28;20275;-68
2021/08/09 10:27:46;;;;;;;7.53;3.90;;;24.50;99.90;;;;;;5033536;28;20179;-68
2021/08/09 10:30:22;;;;;;;5.68;5.25;;;24.40;99.90;;;;;;5033521;28;20186;-66
2021/08/09 10:32:55;;;;;;;4.63;4.22;;;24.00;99.90;;;;;;5033639;28;20233;-66
2021/08/09 10:35:34;;;;;;;4.63;4.32;;;23.70;99.90;;;;;;5032322;28;20183;-68
2021/08/09 10:38:20;;;;;;;6.38;4.60;;;23.80;99.90;;;;;;5013840;28;20192;-68
2021/08/09 10:40:47;;;;;;;5.13;4.05;;;24.20;99.90;;;;;;5015177;28;20625;-68
2021/08/09 10:43:13;;;;;;;4.00;3.80;;;24.60;99.90;;;;;;5033492;28;20168;-68
2021/08/09 10:45:40;;;;;;;4.30;3.92;;;24.80;99.90;;;;;;5033303;28;20695;-68
2021/08/09 10:48:09;;;;;;;4.00;3.72;;;25.20;99.90;;;;;;5033641;28;20176;-66
2021/08/09 10:50:39;;;;;;;4.72;4.40;;;25.60;99.90;;;;;;5033154;28;20203;-68
2021/08/09 10:53:24;;;;;;;4.65;4.20;;;25.60;99.90;;;;;;5033290;28;20202;-67
2021/08/09 10:55:54;;;;;;;5.03;4.72;;;25.90;99.90;;;;;;5033036;28;20175;-68
2021/08/09 10:58:45;;;;;;;4.82;4.47;;;26.10;99.90;;;;;;5033329;28;20771;-68
2021/08/09 11:01:15;;;;;;;4.40;4.10;;;25.50;99.90;;;;;;5031343;28;20198;-67
2021/08/09 11:04:02;;;;;;;4.30;4.00;;;25.20;99.90;;;;;;5033243;28;20191;-68
2021/08/09 11:06:45;;;;;;;5.60;4.75;;;24.90;99.90;;;;;;5031268;28;20703;-68
2021/08/09 11:09:29;;;;;;;5.75;4.05;;;24.90;99.90;;;;;;5033258;28;20257;-66
2021/08/09 11:12:26;;;;;;;4.30;4.10;;;25.20;99.90;;;;;;5032828;28;20180;-67
2021/08/09 11:15:15;;;;;;;5.22;4.18;;;25.20;99.90;;;;;;5033123;28;20302;-67
2021/08/09 11:17:45;;;;;;;4.80;4.40;;;25.50;99.90;;;;;;5022439;28;20188;-67
2021/08/09 11:20:16;;;;;;;4.68;4.38;;;26.00;99.90;;;;;;5032653;28;20203;-68
2021/08/09 11:22:45;;;;;;;5.30;4.85;;;26.60;99.90;;;;;;5032866;28;20238;-67
2021/08/09 11:25:32;;;;;;;3.72;3.47;;;26.70;99.90;;;;;;5032637;28;20541;-68
2021/08/09 11:27:58;;;;;;;4.55;4.25;;;26.50;99.90;;;;;;5032678;28;20175;-68
2021/08/09 11:30:42;;;;;;;4.60;4.40;;;26.10;99.90;;;;;;5032110;28;20582;-67
2021/08/09 11:33:22;;;;;;;5.45;4.32;;;25.70;99.90;;;;;;5031290;28;20211;-66
2021/08/09 11:35:49;;;;;;;5.35;4.07;;;25.60;99.90;;;;;;5032485;28;20241;-67
2021/08/09 11:38:15;;;;;;;4.15;3.95;;;25.90;99.90;;;;;;5032391;28;20179;-67
2021/08/09 11:40:48;;;;;;;4.53;4.32;;;26.20;99.90;;;;;;5032436;28;20641;-67
2021/08/09 11:43:25;;;;;;;4.72;3.70;;;26.20;99.90;;;;;;5032143;28;20187;-67
2021/08/09 11:45:52;;;;;;;4.93;4.45;;;25.80;99.90;;;;;;5032285;28;20261;-68
2021/08/09 11:48:25;;;;;;;4.32;4.03;;;25.50;99.90;;;;;;5032169;28;20179;-68
2021/08/09 11:50:55;;;;;;;4.88;4.57;;;25.30;99.90;;;;;;5031990;28;20721;-67
2021/08/09 11:53:21;;;;;;;4.38;4.00;;;25.20;99.90;;;;;;5031786;28;20219;-68
2021/08/09 11:55:47;;;;;;;4.60;4.30;;;25.00;99.90;;;;;;5032142;28;20644;-67
2021/08/09 11:58:29;;;;;;;4.22;4.00;;;24.80;99.90;;;;;;5031938;28;20251;-67
2021/08/09 12:00:54;;;;;;;4.20;3.92;;;24.60;99.90;;;;;;5031777;28;20270;-66
2021/08/09 12:03:22;;;;;;;5.05;4.75;;;24.60;99.90;;;;;;5031971;28;20711;-66
2021/08/09 12:05:48;;;;;;;4.10;3.90;;;24.80;99.90;;;;;;5031835;28;20199;-67
2021/08/09 12:08:14;;;;;;;4.97;4.68;;;24.80;99.90;;;;;;5032068;28;20176;-67
2021/08/09 12:10:40;;;;;;;4.97;4.78;;;24.80;99.90;;;;;;5031384;28;20190;-67
2021/08/09 12:13:29;;;;;;;4.38;4.18;;;24.90;99.90;;;;;;5031626;28;20206;-66
2021/08/09 12:16:13;;;;;;;5.00;4.70;;;25.20;99.90;;;;;;5031577;28;20250;-66
2021/08/09 12:18:40;;;;;;;5.07;4.68;;;25.40;99.90;;;;;;5031873;28;20198;-67
2021/08/09 12:21:13;;;;;;;5.50;5.10;;;25.30;99.90;;;;;;5031244;28;20205;-67
2021/08/09 12:23:50;;;;;;;5.00;4.60;;;25.20;99.90;;;;;;5031219;28;20221;-68
2021/08/09 12:26:24;;;;;;;4.40;4.00;;;25.10;99.90;;;;;;5031547;28;20226;-67
2021/08/09 12:28:56;;;;;;;4.70;4.18;;;25.00;99.90;;;;;;5031701;28;20187;-67
2021/08/09 12:31:40;;;;;;;5.18;4.75;;;24.70;99.90;;;;;;5031044;28;20267;-68
2021/08/09 12:34:08;;;;;;;3.97;3.78;;;24.60;99.90;;;;;;5031498;28;20252;-66
2021/08/09 12:36:35;;;;;;;4.60;4.20;;;24.70;99.90;;;;;;5031577;28;20175;-67
2021/08/09 12:39:02;;;;;;;5.13;4.72;;;24.70;99.90;;;;;;5031574;28;20233;-66
2021/08/09 12:41:30;;;;;;;4.75;4.35;;;24.80;99.90;;;;;;5030931;28;20176;-66
2021/08/09 12:43:58;;;;;;;4.20;3.90;;;24.90;99.90;;;;;;5030085;28;20192;-67
2021/08/09 12:46:24;;;;;;;4.57;4.32;;;24.80;99.90;;;;;;5031217;28;20647;-67
2021/08/09 12:48:51;;;;;;;5.35;4.25;;;24.70;99.90;;;;;;5031301;28;20191;-67
2021/08/09 12:51:18;;;;;;;4.60;4.40;;;24.50;99.90;;;;;;5031098;28;20187;-67
2021/08/09 12:53:43;;;;;;;4.43;4.03;;;24.10;99.90;;;;;;5031102;28;20211;-68